Terminal Aerodrome Forecast
Issued by NWS Boston, MA

Home | Current Version | Previous Version | Text Only | Print | Product List | Glossary On
Versions: 1 2 3 4 5 6 7 8 9 10 11 12 13 14 15 16 17 18 19 20 21 22 23 24 25 26 27 28 29 30 31 32 33 34 35 36 37 38 39 40 41 42 43 44 45 46 47 48 49 50
000
FTUS41 KBOX 212341 AAB
TAFPVD
TAF AMD
KPVD 212341Z 2200/2224 23005KT P6SM FEW020 SCT200
     FM220300 VRB03KT 3SM BR SCT050
     FM220500 00000KT 1SM BR BKN001
     FM221400 04004KT 2SM BR BKN003
     FM221600 05006KT P6SM BKN030
     FM221900 06008KT P6SM BKN015
     FM222200 06010G19KT P6SM VCSH OVC015=

USA.gov is the U.S. government's official web portal to all federal, state and local government web resources and services.